Butes — A8UR6 — position and weather

sailwx.info

Track history (hours):
 
Tides and Currents Weather Stations Pressure Air Temp Water Temp Dewpoint Dewpoint Depression Visibility Wind Speed Wind Dir Waves Ship Positions

Butes

Last reported at 2016-Jun-30 04:32 UTC. Time now 2016-Jun-30 05:08 UTC.
Position N 51°54' E 004°21'.

Length 90 m; draft 5.7 m.

Type: Cargo ship. MMSI: 636091937.

Date/timePositionNaut miles runAvg speedWind from/ knotsBaromVisibWave heightAir tempDewpointWater temp
2016-Jun-30 04:32N 51°54' E 004°21'0 0.0
2016-Jun-30 03:32N 51°54' E 004°21'0 0.0
2016-Jun-30 02:32N 51°54' E 004°21'0 0.0
2016-Jun-30 01:32N 51°54' E 004°21'0 0.0
2016-Jun-30 00:32N 51°54' E 004°21'0 0.0
2016-Jun-29 23:32N 51°54' E 004°21'0 0.0
2016-Jun-29 22:32N 51°54' E 004°21'0 0.0
2016-Jun-29 21:26N 51°54' E 004°21'0 0.0
2016-Jun-29 20:32N 51°54' E 004°21'0 0.0
2016-Jun-29 19:29N 51°54' E 004°21'0 0.0
2016-Jun-29 18:32N 51°54' E 004°21'0 0.0
2016-Jun-29 17:32N 51°54' E 004°21'0 0.0
2016-Jun-29 16:32N 51°54' E 004°21'0 0.0
2016-Jun-29 15:32N 51°54' E 004°21'0 0.0
2016-Jun-29 14:32N 51°54' E 004°21'0 0.0
2016-Jun-29 13:32N 51°54' E 004°21'0 0.0
2016-Jun-29 12:26N 51°54' E 004°21'0 0.0
2016-Jun-29 11:32N 51°54' E 004°21'0 0.0
2016-Jun-29 10:32N 51°54' E 004°21'0 0.0
2016-Jun-29 09:29N 51°54' E 004°21'0 0.0
2016-Jun-29 08:32N 51°54' E 004°21'0 0.0
2016-Jun-29 07:32N 51°54' E 004°21'0 0.0
2016-Jun-29 06:26N 51°54' E 004°21'0 0.0
2016-Jun-29 05:32N 51°54' E 004°21'0 0.0
2016-Jun-29 04:26N 51°54' E 004°21'0 0.0
2016-Jun-29 03:32N 51°54' E 004°21'0 0.0
2016-Jun-29 02:32N 51°54' E 004°21'0 0.0
2016-Jun-29 01:29N 51°54' E 004°21'0 0.0
2016-Jun-29 00:32N 51°54' E 004°21'0 0.0
2016-Jun-28 23:32N 51°54' E 004°21'0 0.0
2016-Jun-28 22:32N 51°54' E 004°21'0 0.0
2016-Jun-28 21:32N 51°54' E 004°21'0 0.0
2016-Jun-28 20:32N 51°54' E 004°21'0 0.0
2016-Jun-28 19:32N 51°54' E 004°21'0 0.0
2016-Jun-28 18:29N 51°54' E 004°21'0 0.0
2016-Jun-28 17:32N 51°54' E 004°21'0 0.1
2016-Jun-28 16:33N 51°54' E 004°21'3 2.8
2016-Jun-28 15:27N 51°53' E 004°16'0 0.0
2016-Jun-28 14:27N 51°53' E 004°16'0 0.0
2016-Jun-28 13:33N 51°53' E 004°16'0 0.0
2016-Jun-28 12:33N 51°53' E 004°16'0 0.0
2016-Jun-28 11:33N 51°53' E 004°16'0 0.0
2016-Jun-28 10:34N 51°53' E 004°16'0 0.0
2016-Jun-28 09:33N 51°53' E 004°16'0 0.0
2016-Jun-28 08:32N 51°53' E 004°16'0 0.0
2016-Jun-28 07:33N 51°53' E 004°16'0 0.0
2016-Jun-28 06:34N 51°53' E 004°16'13 6.5
2016-Jun-28 04:33N 51°60' E 003°58'65 7.1
2016-Jun-27 19:24N 51°34' E 002°22'1011.8
2016-Jun-27 18:34N 51°25' E 002°13'1211.8
2016-Jun-27 17:33N 51°15' E 002°04'1212.0
2016-Jun-27 16:34N 51°07' E 001°49'1212.1
2016-Jun-27 15:34N 50°59' E 001°36'72 9.0
2016-Jun-27 07:33N 50°18' E 000°02'9 8.8
2016-Jun-27 06:34N 50°16' W 000°11'20610.3
2016-Jun-26 10:33N 48°57' W 005°05'1010.4
2016-Jun-26 09:33N 48°52' W 005°19'313 9.5
2016-Jun-25 00:34N 43°51' W 007°24'7 0.1
2016-Jun-22 23:05N 43°44' W 007°26'1 0.1
2016-Jun-22 18:16N 43°44' W 007°26'1 0.2
2016-Jun-22 14:33N 43°44' W 007°25'1111.3
2016-Jun-22 13:33N 43°56' W 007°28'43611.2
2016-Jun-20 22:31N 51°11' W 008°11'1010.9
2016-Jun-20 21:33N 51°21' W 008°12'1110.9
2016-Jun-20 20:33N 51°32' W 008°13'1111.0
2016-Jun-20 19:34N 51°43' W 008°14'9 8.7
2016-Jun-20 18:33N 51°51' W 008°20'6 1.9
2016-Jun-20 15:33N 51°54' W 008°27'0 0.0
2016-Jun-20 13:27N 51°54' W 008°27'0 0.0
2016-Jun-20 12:24N 51°54' W 008°27'0 0.0
2016-Jun-20 11:33N 51°54' W 008°27'0 0.0
2016-Jun-20 10:30N 51°54' W 008°27'0 0.0
2016-Jun-20 09:30N 51°54' W 008°27'  
Track history (hours):
 
Tides and Currents Weather Stations Pressure Air Temp Water Temp Dewpoint Dewpoint Depression Visibility Wind Speed Wind Dir Waves Ship Positions

Butes

Last reported at 2016-Jun-30 04:32 UTC. Time now 2016-Jun-30 05:08 UTC.
Position N 51°54' E 004°21'.

Length 90 m; draft 5.7 m.

Type: Cargo ship. MMSI: 636091937.

Date/timePositionNaut miles runAvg speedWind from/ knotsBaromVisibWave heightAir tempDewpointWater temp
2016-Jun-30 04:32N 51°54' E 004°21'0 0.0
2016-Jun-30 03:32N 51°54' E 004°21'0 0.0
2016-Jun-30 02:32N 51°54' E 004°21'0 0.0
2016-Jun-30 01:32N 51°54' E 004°21'0 0.0
2016-Jun-30 00:32N 51°54' E 004°21'0 0.0
2016-Jun-29 23:32N 51°54' E 004°21'0 0.0
2016-Jun-29 22:32N 51°54' E 004°21'0 0.0
2016-Jun-29 21:26N 51°54' E 004°21'0 0.0
2016-Jun-29 20:32N 51°54' E 004°21'0 0.0
2016-Jun-29 19:29N 51°54' E 004°21'0 0.0
2016-Jun-29 18:32N 51°54' E 004°21'0 0.0
2016-Jun-29 17:32N 51°54' E 004°21'0 0.0
2016-Jun-29 16:32N 51°54' E 004°21'0 0.0
2016-Jun-29 15:32N 51°54' E 004°21'0 0.0
2016-Jun-29 14:32N 51°54' E 004°21'0 0.0
2016-Jun-29 13:32N 51°54' E 004°21'0 0.0
2016-Jun-29 12:26N 51°54' E 004°21'0 0.0
2016-Jun-29 11:32N 51°54' E 004°21'0 0.0
2016-Jun-29 10:32N 51°54' E 004°21'0 0.0
2016-Jun-29 09:29N 51°54' E 004°21'0 0.0
2016-Jun-29 08:32N 51°54' E 004°21'0 0.0
2016-Jun-29 07:32N 51°54' E 004°21'0 0.0
2016-Jun-29 06:26N 51°54' E 004°21'0 0.0
2016-Jun-29 05:32N 51°54' E 004°21'0 0.0
2016-Jun-29 04:26N 51°54' E 004°21'0 0.0
2016-Jun-29 03:32N 51°54' E 004°21'0 0.0
2016-Jun-29 02:32N 51°54' E 004°21'0 0.0
2016-Jun-29 01:29N 51°54' E 004°21'0 0.0
2016-Jun-29 00:32N 51°54' E 004°21'0 0.0
2016-Jun-28 23:32N 51°54' E 004°21'0 0.0
2016-Jun-28 22:32N 51°54' E 004°21'0 0.0
2016-Jun-28 21:32N 51°54' E 004°21'0 0.0
2016-Jun-28 20:32N 51°54' E 004°21'0 0.0
2016-Jun-28 19:32N 51°54' E 004°21'0 0.0
2016-Jun-28 18:29N 51°54' E 004°21'0 0.0
2016-Jun-28 17:32N 51°54' E 004°21'0 0.1
2016-Jun-28 16:33N 51°54' E 004°21'3 2.8
2016-Jun-28 15:27N 51°53' E 004°16'0 0.0
2016-Jun-28 14:27N 51°53' E 004°16'0 0.0
2016-Jun-28 13:33N 51°53' E 004°16'0 0.0
2016-Jun-28 12:33N 51°53' E 004°16'0 0.0
2016-Jun-28 11:33N 51°53' E 004°16'0 0.0
2016-Jun-28 10:34N 51°53' E 004°16'0 0.0
2016-Jun-28 09:33N 51°53' E 004°16'0 0.0
2016-Jun-28 08:32N 51°53' E 004°16'0 0.0
2016-Jun-28 07:33N 51°53' E 004°16'0 0.0
2016-Jun-28 06:34N 51°53' E 004°16'13 6.5
2016-Jun-28 04:33N 51°60' E 003°58'65 7.1
2016-Jun-27 19:24N 51°34' E 002°22'1011.8
2016-Jun-27 18:34N 51°25' E 002°13'1211.8
2016-Jun-27 17:33N 51°15' E 002°04'1212.0
2016-Jun-27 16:34N 51°07' E 001°49'1212.1
2016-Jun-27 15:34N 50°59' E 001°36'72 9.0
2016-Jun-27 07:33N 50°18' E 000°02'9 8.8
2016-Jun-27 06:34N 50°16' W 000°11'20610.3
2016-Jun-26 10:33N 48°57' W 005°05'1010.4
2016-Jun-26 09:33N 48°52' W 005°19'313 9.5
2016-Jun-25 00:34N 43°51' W 007°24'7 0.1
2016-Jun-22 23:05N 43°44' W 007°26'1 0.1
2016-Jun-22 18:16N 43°44' W 007°26'1 0.2
2016-Jun-22 14:33N 43°44' W 007°25'1111.3
2016-Jun-22 13:33N 43°56' W 007°28'43611.2
2016-Jun-20 22:31N 51°11' W 008°11'1010.9
2016-Jun-20 21:33N 51°21' W 008°12'1110.9
2016-Jun-20 20:33N 51°32' W 008°13'1111.0
2016-Jun-20 19:34N 51°43' W 008°14'9 8.7
2016-Jun-20 18:33N 51°51' W 008°20'6 1.9
2016-Jun-20 15:33N 51°54' W 008°27'0 0.0
2016-Jun-20 13:27N 51°54' W 008°27'0 0.0
2016-Jun-20 12:24N 51°54' W 008°27'0 0.0
2016-Jun-20 11:33N 51°54' W 008°27'0 0.0
2016-Jun-20 10:30N 51°54' W 008°27'0 0.0
2016-Jun-20 09:30N 51°54' W 008°27'  

Dump ship's entire track history